sensor_id;sensor_type;location;lat;lon;timestamp;temperature;humidity
2523;DHT22;1272;53.332;9.860;2022-08-03T00:00:07;20.70;1.00
2523;DHT22;1272;53.332;9.860;2022-08-03T00:02:33;20.70;1.00
2523;DHT22;1272;53.332;9.860;2022-08-03T00:04:58;20.60;1.00
2523;DHT22;1272;53.332;9.860;2022-08-03T00:07:24;20.60;1.00
2523;DHT22;1272;53.332;9.860;2022-08-03T00:09:50;20.60;38.00
2523;DHT22;1272;53.332;9.860;2022-08-03T00:12:15;20.60;99.90
2523;DHT22;1272;53.332;9.860;2022-08-03T00:14:41;20.50;99.90
2523;DHT22;1272;53.332;9.860;2022-08-03T00:17:07;20.50;99.90
2523;DHT22;1272;53.332;9.860;2022-08-03T00:19:33;20.50;99.90
2523;DHT22;1272;53.332;9.860;2022-08-03T00:21:58;20.40;99.90
2523;DHT22;1272;53.332;9.860;2022-08-03T00:24:24;20.40;1.00
2523;DHT22;1272;53.332;9.860;2022-08-03T00:26:49;20.40;99.90
2523;DHT22;1272;53.332;9.860;2022-08-03T00:29:15;20.40;99.90
2523;DHT22;1272;53.332;9.860;2022-08-03T00:31:41;20.30;99.90
2523;DHT22;1272;53.332;9.860;2022-08-03T00:34:06;20.30;99.90
2523;DHT22;1272;53.332;9.860;2022-08-03T00:36:32;20.20;99.90
2523;DHT22;1272;53.332;9.860;2022-08-03T00:38:58;20.20;1.00
2523;DHT22;1272;53.332;9.860;2022-08-03T00:41:23;20.10;99.90
2523;DHT22;1272;53.332;9.860;2022-08-03T00:43:49;20.00;99.90
2523;DHT22;1272;53.332;9.860;2022-08-03T00:46:15;19.90;99.90
2523;DHT22;1272;53.332;9.860;2022-08-03T00:48:40;19.90;99.90
2523;DHT22;1272;53.332;9.860;2022-08-03T00:51:06;19.80;99.90
2523;DHT22;1272;53.332;9.860;2022-08-03T00:53:34;19.70;1.00
2523;DHT22;1272;53.332;9.860;2022-08-03T00:56:00;19.70;1.00
2523;DHT22;1272;53.332;9.860;2022-08-03T00:58:25;19.60;1.00
2523;DHT22;1272;53.332;9.860;2022-08-03T01:00:51;19.60;99.90
2523;DHT22;1272;53.332;9.860;2022-08-03T01:03:17;19.50;99.90
2523;DHT22;1272;53.332;9.860;2022-08-03T01:05:56;19.40;99.90
2523;DHT22;1272;53.332;9.860;2022-08-03T01:08:38;19.40;99.90
2523;DHT22;1272;53.332;9.860;2022-08-03T01:16:58;19.10;1.00
2523;DHT22;1272;53.332;9.860;2022-08-03T01:20:08;19.10;1.00
2523;DHT22;1272;53.332;9.860;2022-08-03T01:28:24;18.90;99.90
2523;DHT22;1272;53.332;9.860;2022-08-03T01:30:56;18.80;99.90
2523;DHT22;1272;53.332;9.860;2022-08-03T01:33:43;18.80;1.00
2523;DHT22;1272;53.332;9.860;2022-08-03T01:36:15;18.80;1.00
2523;DHT22;1272;53.332;9.860;2022-08-03T01:38:55;18.70;1.00
2523;DHT22;1272;53.332;9.860;2022-08-03T01:41:30;18.70;1.00
2523;DHT22;1272;53.332;9.860;2022-08-03T01:44:00;18.70;1.00
2523;DHT22;1272;53.332;9.860;2022-08-03T01:46:28;18.60;1.00
2523;DHT22;1272;53.332;9.860;2022-08-03T01:48:55;18.60;1.00
2523;DHT22;1272;53.332;9.860;2022-08-03T01:51:21;18.60;27.70
2523;DHT22;1272;53.332;9.860;2022-08-03T01:53:48;18.50;15.00
2523;DHT22;1272;53.332;9.860;2022-08-03T01:56:17;18.40;99.90
2523;DHT22;1272;53.332;9.860;2022-08-03T01:58:45;18.40;99.90
2523;DHT22;1272;53.332;9.860;2022-08-03T02:01:15;18.30;99.90
2523;DHT22;1272;53.332;9.860;2022-08-03T02:03:43;18.30;1.00
2523;DHT22;1272;53.332;9.860;2022-08-03T02:06:11;18.20;1.00
2523;DHT22;1272;53.332;9.860;2022-08-03T02:08:42;18.20;1.00
2523;DHT22;1272;53.332;9.860;2022-08-03T02:11:09;18.20;1.00
2523;DHT22;1272;53.332;9.860;2022-08-03T02:13:35;18.20;1.00
2523;DHT22;1272;53.332;9.860;2022-08-03T02:16:04;18.20;1.00
2523;DHT22;1272;53.332;9.860;2022-08-03T02:18:32;18.20;1.00
2523;DHT22;1272;53.332;9.860;2022-08-03T02:21:02;18.10;1.00
2523;DHT22;1272;53.332;9.860;2022-08-03T02:23:29;18.10;1.00
2523;DHT22;1272;53.332;9.860;2022-08-03T02:26:02;18.10;1.00
2523;DHT22;1272;53.332;9.860;2022-08-03T02:28:31;18.10;1.00
2523;DHT22;1272;53.332;9.860;2022-08-03T02:31:00;18.10;1.00
2523;DHT22;1272;53.332;9.860;2022-08-03T02:33:33;18.00;1.00
2523;DHT22;1272;53.332;9.860;2022-08-03T02:36:02;18.00;1.00
2523;DHT22;1272;53.332;9.860;2022-08-03T02:38:32;17.90;1.00
2523;DHT22;1272;53.332;9.860;2022-08-03T02:41:00;17.80;1.00
2523;DHT22;1272;53.332;9.860;2022-08-03T02:43:29;17.80;1.00
2523;DHT22;1272;53.332;9.860;2022-08-03T02:45:56;17.80;1.00
2523;DHT22;1272;53.332;9.860;2022-08-03T02:48:25;17.70;19.90
2523;DHT22;1272;53.332;9.860;2022-08-03T02:50:54;17.70;58.80
2523;DHT22;1272;53.332;9.860;2022-08-03T02:53:22;17.70;43.60
2523;DHT22;1272;53.332;9.860;2022-08-03T02:55:49;17.70;36.70
2523;DHT22;1272;53.332;9.860;2022-08-03T02:58:18;17.70;45.60
2523;DHT22;1272;53.332;9.860;2022-08-03T03:00:46;17.70;38.70
2523;DHT22;1272;53.332;9.860;2022-08-03T03:03:13;17.70;24.60
2523;DHT22;1272;53.332;9.860;2022-08-03T03:05:40;17.70;18.30
2523;DHT22;1272;53.332;9.860;2022-08-03T03:08:07;17.60;11.20
2523;DHT22;1272;53.332;9.860;2022-08-03T03:10:35;17.60;21.30
2523;DHT22;1272;53.332;9.860;2022-08-03T03:13:02;17.60;12.00
2523;DHT22;1272;53.332;9.860;2022-08-03T03:15:28;17.60;1.00
2523;DHT22;1272;53.332;9.860;2022-08-03T03:17:56;17.60;1.00
2523;DHT22;1272;53.332;9.860;2022-08-03T03:20:23;17.50;1.00
2523;DHT22;1272;53.332;9.860;2022-08-03T03:22:49;17.40;32.90
2523;DHT22;1272;53.332;9.860;2022-08-03T03:25:16;17.30;68.20
2523;DHT22;1272;53.332;9.860;2022-08-03T03:27:42;17.30;83.80
2523;DHT22;1272;53.332;9.860;2022-08-03T03:30:08;17.30;29.00
2523;DHT22;1272;53.332;9.860;2022-08-03T03:32:34;17.30;91.50
2523;DHT22;1272;53.332;9.860;2022-08-03T03:35:05;17.20;99.90
2523;DHT22;1272;53.332;9.860;2022-08-03T03:37:31;17.10;99.90
2523;DHT22;1272;53.332;9.860;2022-08-03T03:39:56;17.10;99.90
2523;DHT22;1272;53.332;9.860;2022-08-03T03:42:22;17.10;99.90
2523;DHT22;1272;53.332;9.860;2022-08-03T03:44:49;17.10;99.90
2523;DHT22;1272;53.332;9.860;2022-08-03T03:47:15;17.20;99.90
2523;DHT22;1272;53.332;9.860;2022-08-03T03:49:40;17.20;99.90
2523;DHT22;1272;53.332;9.860;2022-08-03T03:52:07;17.10;99.90
2523;DHT22;1272;53.332;9.860;2022-08-03T03:54:43;17.10;99.90
2523;DHT22;1272;53.332;9.860;2022-08-03T03:57:10;17.10;99.90
2523;DHT22;1272;53.332;9.860;2022-08-03T03:59:40;17.20;99.90
2523;DHT22;1272;53.332;9.860;2022-08-03T04:02:07;17.20;99.90
2523;DHT22;1272;53.332;9.860;2022-08-03T04:04:33;17.20;99.90
2523;DHT22;1272;53.332;9.860;2022-08-03T04:07:35;17.20;99.90
2523;DHT22;1272;53.332;9.860;2022-08-03T04:10:24;17.20;99.90
2523;DHT22;1272;53.332;9.860;2022-08-03T04:13:13;17.10;99.90
2523;DHT22;1272;53.332;9.860;2022-08-03T04:15:40;17.10;99.90
2523;DHT22;1272;53.332;9.860;2022-08-03T04:18:10;17.10;99.90
2523;DHT22;1272;53.332;9.860;2022-08-03T04:20:37;17.10;99.90
2523;DHT22;1272;53.332;9.860;2022-08-03T04:23:05;17.10;99.90
2523;DHT22;1272;53.332;9.860;2022-08-03T04:25:33;17.10;99.90
2523;DHT22;1272;53.332;9.860;2022-08-03T04:28:01;17.10;99.90
2523;DHT22;1272;53.332;9.860;2022-08-03T04:30:28;17.10;99.90
2523;DHT22;1272;53.332;9.860;2022-08-03T04:32:57;17.10;99.90
2523;DHT22;1272;53.332;9.860;2022-08-03T04:35:30;17.10;99.90
2523;DHT22;1272;53.332;9.860;2022-08-03T04:38:00;17.20;99.90
2523;DHT22;1272;53.332;9.860;2022-08-03T04:40:30;17.20;99.90
2523;DHT22;1272;53.332;9.860;2022-08-03T04:42:57;17.20;99.90
2523;DHT22;1272;53.332;9.860;2022-08-03T04:45:26;17.30;99.90
2523;DHT22;1272;53.332;9.860;2022-08-03T04:47:52;17.30;99.90
2523;DHT22;1272;53.332;9.860;2022-08-03T04:50:19;17.30;99.90
2523;DHT22;1272;53.332;9.860;2022-08-03T04:52:45;17.30;99.90
2523;DHT22;1272;53.332;9.860;2022-08-03T04:55:11;17.30;99.90
2523;DHT22;1272;53.332;9.860;2022-08-03T04:57:36;17.40;99.90
2523;DHT22;1272;53.332;9.860;2022-08-03T05:00:04;17.40;99.90
2523;DHT22;1272;53.332;9.860;2022-08-03T05:02:30;17.50;99.90
2523;DHT22;1272;53.332;9.860;2022-08-03T05:04:57;17.50;99.90
2523;DHT22;1272;53.332;9.860;2022-08-03T05:07:22;17.50;99.90
2523;DHT22;1272;53.332;9.860;2022-08-03T05:09:48;17.50;99.90
2523;DHT22;1272;53.332;9.860;2022-08-03T05:12:14;17.60;99.90
2523;DHT22;1272;53.332;9.860;2022-08-03T05:14:40;17.60;99.90
2523;DHT22;1272;53.332;9.860;2022-08-03T05:17:06;17.70;99.90
2523;DHT22;1272;53.332;9.860;2022-08-03T05:19:32;17.70;99.90
2523;DHT22;1272;53.332;9.860;2022-08-03T05:21:58;17.80;99.90
2523;DHT22;1272;53.332;9.860;2022-08-03T05:24:24;17.80;99.90
2523;DHT22;1272;53.332;9.860;2022-08-03T05:26:49;17.90;99.90
2523;DHT22;1272;53.332;9.860;2022-08-03T05:29:15;18.00;99.90
2523;DHT22;1272;53.332;9.860;2022-08-03T05:31:41;18.10;99.90
2523;DHT22;1272;53.332;9.860;2022-08-03T05:34:06;18.10;99.90
2523;DHT22;1272;53.332;9.860;2022-08-03T05:36:32;18.20;99.90
2523;DHT22;1272;53.332;9.860;2022-08-03T05:38:57;18.30;99.90
2523;DHT22;1272;53.332;9.860;2022-08-03T05:41:23;18.40;85.90
2523;DHT22;1272;53.332;9.860;2022-08-03T05:43:53;18.40;37.80
2523;DHT22;1272;53.332;9.860;2022-08-03T05:46:19;18.50;15.30
2523;DHT22;1272;53.332;9.860;2022-08-03T05:48:45;18.60;1.00
2523;DHT22;1272;53.332;9.860;2022-08-03T05:51:11;18.70;1.00
2523;DHT22;1272;53.332;9.860;2022-08-03T05:53:39;18.80;1.00
2523;DHT22;1272;53.332;9.860;2022-08-03T05:56:05;18.90;1.00
2523;DHT22;1272;53.332;9.860;2022-08-03T05:58:30;19.00;1.00
2523;DHT22;1272;53.332;9.860;2022-08-03T06:00:56;19.10;1.00
2523;DHT22;1272;53.332;9.860;2022-08-03T06:03:21;19.10;1.00
2523;DHT22;1272;53.332;9.860;2022-08-03T06:05:47;19.20;1.00
2523;DHT22;1272;53.332;9.860;2022-08-03T06:08:13;19.30;1.00
2523;DHT22;1272;53.332;9.860;2022-08-03T06:10:38;19.30;1.00
2523;DHT22;1272;53.332;9.860;2022-08-03T06:13:04;19.50;99.90
2523;DHT22;1272;53.332;9.860;2022-08-03T06:15:30;19.60;99.90
2523;DHT22;1272;53.332;9.860;2022-08-03T06:17:58;19.70;99.90
2523;DHT22;1272;53.332;9.860;2022-08-03T06:20:23;19.80;99.90
2523;DHT22;1272;53.332;9.860;2022-08-03T06:22:49;20.00;1.00
2523;DHT22;1272;53.332;9.860;2022-08-03T06:25:15;20.10;1.00
2523;DHT22;1272;53.332;9.860;2022-08-03T06:27:42;20.20;52.90
2523;DHT22;1272;53.332;9.860;2022-08-03T06:30:09;20.20;1.00
2523;DHT22;1272;53.332;9.860;2022-08-03T06:32:39;20.40;1.00
2523;DHT22;1272;53.332;9.860;2022-08-03T06:35:06;20.50;1.00
2523;DHT22;1272;53.332;9.860;2022-08-03T06:37:44;20.90;99.90
2523;DHT22;1272;53.332;9.860;2022-08-03T06:40:16;21.10;99.90
2523;DHT22;1272;53.332;9.860;2022-08-03T06:42:42;21.30;1.00
2523;DHT22;1272;53.332;9.860;2022-08-03T06:45:08;21.60;1.00
2523;DHT22;1272;53.332;9.860;2022-08-03T06:47:35;21.80;99.90
2523;DHT22;1272;53.332;9.860;2022-08-03T06:50:01;22.10;99.90
2523;DHT22;1272;53.332;9.860;2022-08-03T06:52:28;22.10;99.90
2523;DHT22;1272;53.332;9.860;2022-08-03T06:54:54;22.30;99.90
2523;DHT22;1272;53.332;9.860;2022-08-03T06:57:19;22.40;99.90
2523;DHT22;1272;53.332;9.860;2022-08-03T06:59:45;22.40;99.90
2523;DHT22;1272;53.332;9.860;2022-08-03T07:02:11;22.40;37.40
2523;DHT22;1272;53.332;9.860;2022-08-03T07:04:37;22.50;79.60
2523;DHT22;1272;53.332;9.860;2022-08-03T07:07:02;22.60;58.00
2523;DHT22;1272;53.332;9.860;2022-08-03T07:09:28;22.80;1.00
2523;DHT22;1272;53.332;9.860;2022-08-03T07:11:54;23.00;1.00
2523;DHT22;1272;53.332;9.860;2022-08-03T07:14:20;23.00;1.00
2523;DHT22;1272;53.332;9.860;2022-08-03T07:16:46;23.10;1.00
2523;DHT22;1272;53.332;9.860;2022-08-03T07:19:12;23.10;1.00
2523;DHT22;1272;53.332;9.860;2022-08-03T07:21:37;23.30;1.00
2523;DHT22;1272;53.332;9.860;2022-08-03T07:24:03;23.40;1.00
2523;DHT22;1272;53.332;9.860;2022-08-03T07:26:29;23.50;1.00
2523;DHT22;1272;53.332;9.860;2022-08-03T07:28:55;23.70;1.00
2523;DHT22;1272;53.332;9.860;2022-08-03T07:31:20;23.80;99.90
2523;DHT22;1272;53.332;9.860;2022-08-03T07:33:46;23.70;99.90
2523;DHT22;1272;53.332;9.860;2022-08-03T07:36:12;23.70;99.90
2523;DHT22;1272;53.332;9.860;2022-08-03T07:38:37;23.80;99.90
2523;DHT22;1272;53.332;9.860;2022-08-03T07:41:03;23.80;99.90
2523;DHT22;1272;53.332;9.860;2022-08-03T07:43:29;23.90;99.90
2523;DHT22;1272;53.332;9.860;2022-08-03T07:45:54;24.10;99.90
2523;DHT22;1272;53.332;9.860;2022-08-03T07:48:20;24.20;99.90
2523;DHT22;1272;53.332;9.860;2022-08-03T07:50:46;24.10;99.90
2523;DHT22;1272;53.332;9.860;2022-08-03T07:53:11;24.30;99.90
2523;DHT22;1272;53.332;9.860;2022-08-03T07:55:37;24.40;99.90
2523;DHT22;1272;53.332;9.860;2022-08-03T07:58:05;24.40;99.90
2523;DHT22;1272;53.332;9.860;2022-08-03T08:00:32;24.40;99.90
2523;DHT22;1272;53.332;9.860;2022-08-03T08:02:58;24.40;99.90
2523;DHT22;1272;53.332;9.860;2022-08-03T08:05:24;24.50;99.90
2523;DHT22;1272;53.332;9.860;2022-08-03T08:07:50;24.70;99.90
2523;DHT22;1272;53.332;9.860;2022-08-03T08:10:16;24.90;99.90
2523;DHT22;1272;53.332;9.860;2022-08-03T08:12:42;24.90;99.90
2523;DHT22;1272;53.332;9.860;2022-08-03T08:15:08;24.90;99.90
2523;DHT22;1272;53.332;9.860;2022-08-03T08:17:46;24.90;99.90
2523;DHT22;1272;53.332;9.860;2022-08-03T08:20:16;25.10;99.90
2523;DHT22;1272;53.332;9.860;2022-08-03T08:22:42;25.10;99.90
2523;DHT22;1272;53.332;9.860;2022-08-03T08:25:08;25.20;99.90
2523;DHT22;1272;53.332;9.860;2022-08-03T08:27:47;25.40;99.90
2523;DHT22;1272;53.332;9.860;2022-08-03T08:30:19;25.60;99.90
2523;DHT22;1272;53.332;9.860;2022-08-03T08:32:45;25.60;99.90
2523;DHT22;1272;53.332;9.860;2022-08-03T08:35:11;25.80;99.90
2523;DHT22;1272;53.332;9.860;2022-08-03T08:37:37;25.90;99.90
2523;DHT22;1272;53.332;9.860;2022-08-03T08:40:04;26.00;99.90
2523;DHT22;1272;53.332;9.860;2022-08-03T08:42:31;26.00;99.90
2523;DHT22;1272;53.332;9.860;2022-08-03T08:44:58;26.00;99.90
2523;DHT22;1272;53.332;9.860;2022-08-03T08:47:25;26.00;99.90
2523;DHT22;1272;53.332;9.860;2022-08-03T08:49:54;26.00;99.90
2523;DHT22;1272;53.332;9.860;2022-08-03T08:52:29;25.90;99.90
2523;DHT22;1272;53.332;9.860;2022-08-03T08:55:00;26.10;99.90
2523;DHT22;1272;53.332;9.860;2022-08-03T08:57:36;26.20;99.90
2523;DHT22;1272;53.332;9.860;2022-08-03T09:00:10;26.20;99.90
2523;DHT22;1272;53.332;9.860;2022-08-03T09:02:40;26.30;99.90
2523;DHT22;1272;53.332;9.860;2022-08-03T09:05:19;26.40;94.40
2523;DHT22;1272;53.332;9.860;2022-08-03T09:07:46;26.30;99.90
2523;DHT22;1272;53.332;9.860;2022-08-03T09:10:16;26.50;92.90
2523;DHT22;1272;53.332;9.860;2022-08-03T09:12:49;26.60;99.90
2523;DHT22;1272;53.332;9.860;2022-08-03T09:17:41;27.00;60.60
2523;DHT22;1272;53.332;9.860;2022-08-03T09:20:07;27.00;57.20
2523;DHT22;1272;53.332;9.860;2022-08-03T09:22:34;27.20;48.90
2523;DHT22;1272;53.332;9.860;2022-08-03T09:25:02;27.10;50.30
2523;DHT22;1272;53.332;9.860;2022-08-03T09:27:28;27.10;36.80
2523;DHT22;1272;53.332;9.860;2022-08-03T09:30:15;27.20;42.30
2523;DHT22;1272;53.332;9.860;2022-08-03T09:32:41;27.20;39.10
2523;DHT22;1272;53.332;9.860;2022-08-03T09:35:09;27.10;36.70
2523;DHT22;1272;53.332;9.860;2022-08-03T09:37:36;27.30;27.50
2523;DHT22;1272;53.332;9.860;2022-08-03T09:40:02;27.40;22.50
2523;DHT22;1272;53.332;9.860;2022-08-03T09:42:29;27.70;20.90
2523;DHT22;1272;53.332;9.860;2022-08-03T09:44:54;27.70;14.80
2523;DHT22;1272;53.332;9.860;2022-08-03T09:47:30;27.80;7.70
2523;DHT22;1272;53.332;9.860;2022-08-03T09:52:29;27.90;3.80
2523;DHT22;1272;53.332;9.860;2022-08-03T09:54:55;28.00;1.00
2523;DHT22;1272;53.332;9.860;2022-08-03T09:57:25;28.00;1.00
2523;DHT22;1272;53.332;9.860;2022-08-03T09:59:52;27.90;1.00
2523;DHT22;1272;53.332;9.860;2022-08-03T10:02:24;27.90;1.60
2523;DHT22;1272;53.332;9.860;2022-08-03T10:04:50;27.70;1.00
2523;DHT22;1272;53.332;9.860;2022-08-03T10:07:18;27.70;1.00
2523;DHT22;1272;53.332;9.860;2022-08-03T10:12:19;27.80;1.00
2523;DHT22;1272;53.332;9.860;2022-08-03T10:14:46;28.00;2.60
2523;DHT22;1272;53.332;9.860;2022-08-03T10:17:12;28.30;1.00
2523;DHT22;1272;53.332;9.860;2022-08-03T10:19:38;28.10;1.00
2523;DHT22;1272;53.332;9.860;2022-08-03T10:22:21;28.20;1.00
2523;DHT22;1272;53.332;9.860;2022-08-03T10:27:19;28.50;1.00
2523;DHT22;1272;53.332;9.860;2022-08-03T10:29:50;28.70;1.00
2523;DHT22;1272;53.332;9.860;2022-08-03T10:32:47;28.80;1.00
2523;DHT22;1272;53.332;9.860;2022-08-03T10:35:19;29.10;1.00
2523;DHT22;1272;53.332;9.860;2022-08-03T10:38:01;29.20;1.00
2523;DHT22;1272;53.332;9.860;2022-08-03T10:40:30;29.40;1.00
2523;DHT22;1272;53.332;9.860;2022-08-03T10:43:01;29.40;1.00
2523;DHT22;1272;53.332;9.860;2022-08-03T10:45:28;29.50;1.00
2523;DHT22;1272;53.332;9.860;2022-08-03T10:47:55;29.70;1.00
2523;DHT22;1272;53.332;9.860;2022-08-03T10:50:23;29.70;1.00
2523;DHT22;1272;53.332;9.860;2022-08-03T10:53:04;29.80;1.00
2523;DHT22;1272;53.332;9.860;2022-08-03T10:55:43;29.90;1.00
2523;DHT22;1272;53.332;9.860;2022-08-03T11:01:10;29.90;1.00
2523;DHT22;1272;53.332;9.860;2022-08-03T11:06:18;30.10;1.00
2523;DHT22;1272;53.332;9.860;2022-08-03T11:08:50;30.30;1.00
2523;DHT22;1272;53.332;9.860;2022-08-03T11:11:34;30.40;1.00
2523;DHT22;1272;53.332;9.860;2022-08-03T11:14:08;30.20;1.00
2523;DHT22;1272;53.332;9.860;2022-08-03T11:16:39;30.20;1.00
2523;DHT22;1272;53.332;9.860;2022-08-03T11:19:10;30.10;1.00
2523;DHT22;1272;53.332;9.860;2022-08-03T11:27:29;30.20;1.00
2523;DHT22;1272;53.332;9.860;2022-08-03T11:46:05;30.90;1.00
2523;DHT22;1272;53.332;9.860;2022-08-03T11:48:40;30.90;1.00
2523;DHT22;1272;53.332;9.860;2022-08-03T11:51:19;31.10;1.00
2523;DHT22;1272;53.332;9.860;2022-08-03T11:53:46;31.20;1.00
2523;DHT22;1272;53.332;9.860;2022-08-03T11:56:12;31.50;1.00
2523;DHT22;1272;53.332;9.860;2022-08-03T11:58:45;31.50;1.00
2523;DHT22;1272;53.332;9.860;2022-08-03T12:01:12;31.70;1.00
2523;DHT22;1272;53.332;9.860;2022-08-03T12:03:41;31.80;1.00
2523;DHT22;1272;53.332;9.860;2022-08-03T12:06:13;32.00;1.00
2523;DHT22;1272;53.332;9.860;2022-08-03T12:08:40;32.30;1.00
2523;DHT22;1272;53.332;9.860;2022-08-03T12:11:08;32.30;1.00
2523;DHT22;1272;53.332;9.860;2022-08-03T12:13:47;32.30;1.00
2523;DHT22;1272;53.332;9.860;2022-08-03T12:16:24;31.90;1.00
2523;DHT22;1272;53.332;9.860;2022-08-03T12:18:57;31.80;1.00
2523;DHT22;1272;53.332;9.860;2022-08-03T12:21:23;32.00;1.00
2523;DHT22;1272;53.332;9.860;2022-08-03T12:23:50;32.10;1.00
2523;DHT22;1272;53.332;9.860;2022-08-03T12:26:17;32.20;1.00
2523;DHT22;1272;53.332;9.860;2022-08-03T12:28:49;32.40;1.00
2523;DHT22;1272;53.332;9.860;2022-08-03T12:31:14;32.30;1.00
2523;DHT22;1272;53.332;9.860;2022-08-03T12:34:03;32.40;1.00
2523;DHT22;1272;53.332;9.860;2022-08-03T12:36:32;32.70;1.00
2523;DHT22;1272;53.332;9.860;2022-08-03T12:39:00;33.00;1.00
2523;DHT22;1272;53.332;9.860;2022-08-03T12:41:37;32.90;1.00
2523;DHT22;1272;53.332;9.860;2022-08-03T12:44:06;32.80;1.00
2523;DHT22;1272;53.332;9.860;2022-08-03T12:46:34;32.80;1.00
2523;DHT22;1272;53.332;9.860;2022-08-03T12:51:42;32.80;1.00
2523;DHT22;1272;53.332;9.860;2022-08-03T12:54:22;33.10;1.00
2523;DHT22;1272;53.332;9.860;2022-08-03T12:57:05;33.10;1.00
2523;DHT22;1272;53.332;9.860;2022-08-03T12:59:36;33.30;1.00
2523;DHT22;1272;53.332;9.860;2022-08-03T13:02:03;33.30;1.00
2523;DHT22;1272;53.332;9.860;2022-08-03T13:04:34;33.00;1.00
2523;DHT22;1272;53.332;9.860;2022-08-03T13:07:07;32.90;1.00
2523;DHT22;1272;53.332;9.860;2022-08-03T13:09:47;33.00;1.00
2523;DHT22;1272;53.332;9.860;2022-08-03T13:12:15;33.10;1.00
2523;DHT22;1272;53.332;9.860;2022-08-03T13:14:43;33.20;1.00
2523;DHT22;1272;53.332;9.860;2022-08-03T13:17:09;33.10;1.00
2523;DHT22;1272;53.332;9.860;2022-08-03T13:19:36;33.00;1.00
2523;DHT22;1272;53.332;9.860;2022-08-03T13:22:12;33.20;1.00
2523;DHT22;1272;53.332;9.860;2022-08-03T13:24:40;33.30;1.00
2523;DHT22;1272;53.332;9.860;2022-08-03T13:27:06;33.30;1.00
2523;DHT22;1272;53.332;9.860;2022-08-03T13:29:33;33.40;1.00
2523;DHT22;1272;53.332;9.860;2022-08-03T13:31:59;33.60;1.00
2523;DHT22;1272;53.332;9.860;2022-08-03T13:34:25;33.70;1.00
2523;DHT22;1272;53.332;9.860;2022-08-03T13:36:51;33.80;1.00
2523;DHT22;1272;53.332;9.860;2022-08-03T13:39:17;34.00;1.00
2523;DHT22;1272;53.332;9.860;2022-08-03T13:41:44;34.00;1.00
2523;DHT22;1272;53.332;9.860;2022-08-03T13:44:10;33.90;1.00
2523;DHT22;1272;53.332;9.860;2022-08-03T13:46:35;34.10;1.00
2523;DHT22;1272;53.332;9.860;2022-08-03T13:49:01;34.00;1.00
2523;DHT22;1272;53.332;9.860;2022-08-03T13:51:27;33.90;1.00
2523;DHT22;1272;53.332;9.860;2022-08-03T13:53:52;34.00;1.00
2523;DHT22;1272;53.332;9.860;2022-08-03T13:56:18;34.00;1.00
2523;DHT22;1272;53.332;9.860;2022-08-03T13:58:44;34.20;1.00
2523;DHT22;1272;53.332;9.860;2022-08-03T14:01:09;34.70;1.00
2523;DHT22;1272;53.332;9.860;2022-08-03T14:03:35;34.60;1.00
2523;DHT22;1272;53.332;9.860;2022-08-03T14:06:01;34.60;1.00
2523;DHT22;1272;53.332;9.860;2022-08-03T14:08:27;34.60;1.00
2523;DHT22;1272;53.332;9.860;2022-08-03T14:10:52;34.60;1.00
2523;DHT22;1272;53.332;9.860;2022-08-03T14:13:18;34.70;1.00
2523;DHT22;1272;53.332;9.860;2022-08-03T14:15:45;34.60;1.00
2523;DHT22;1272;53.332;9.860;2022-08-03T14:18:11;34.30;1.00
2523;DHT22;1272;53.332;9.860;2022-08-03T14:20:37;34.30;1.00
2523;DHT22;1272;53.332;9.860;2022-08-03T14:23:02;34.10;1.00
2523;DHT22;1272;53.332;9.860;2022-08-03T14:25:28;34.40;1.00
2523;DHT22;1272;53.332;9.860;2022-08-03T14:27:55;34.80;1.00
2523;DHT22;1272;53.332;9.860;2022-08-03T14:30:21;35.20;1.00
2523;DHT22;1272;53.332;9.860;2022-08-03T14:32:47;35.10;1.00
2523;DHT22;1272;53.332;9.860;2022-08-03T14:35:12;35.00;1.00
2523;DHT22;1272;53.332;9.860;2022-08-03T14:37:38;35.20;1.00
2523;DHT22;1272;53.332;9.860;2022-08-03T14:40:04;35.30;1.00
2523;DHT22;1272;53.332;9.860;2022-08-03T14:42:30;35.20;1.00
2523;DHT22;1272;53.332;9.860;2022-08-03T14:44:56;35.10;1.00
2523;DHT22;1272;53.332;9.860;2022-08-03T14:47:21;35.10;1.00
2523;DHT22;1272;53.332;9.860;2022-08-03T14:49:47;35.20;1.00
2523;DHT22;1272;53.332;9.860;2022-08-03T14:52:13;35.30;1.00
2523;DHT22;1272;53.332;9.860;2022-08-03T14:54:39;35.50;1.00
2523;DHT22;1272;53.332;9.860;2022-08-03T14:57:04;35.60;1.00
2523;DHT22;1272;53.332;9.860;2022-08-03T14:59:31;35.40;1.00
2523;DHT22;1272;53.332;9.860;2022-08-03T15:01:57;35.50;1.00
2523;DHT22;1272;53.332;9.860;2022-08-03T15:04:22;35.50;1.00
2523;DHT22;1272;53.332;9.860;2022-08-03T15:06:48;35.60;1.00
2523;DHT22;1272;53.332;9.860;2022-08-03T15:09:14;35.70;1.00
2523;DHT22;1272;53.332;9.860;2022-08-03T15:11:40;35.30;1.00
2523;DHT22;1272;53.332;9.860;2022-08-03T15:14:06;35.50;1.00
2523;DHT22;1272;53.332;9.860;2022-08-03T15:16:31;35.50;1.00
2523;DHT22;1272;53.332;9.860;2022-08-03T15:18:57;35.50;1.00
2523;DHT22;1272;53.332;9.860;2022-08-03T15:21:23;35.50;1.00
2523;DHT22;1272;53.332;9.860;2022-08-03T15:23:49;35.50;1.00
2523;DHT22;1272;53.332;9.860;2022-08-03T15:26:15;35.40;1.00
2523;DHT22;1272;53.332;9.860;2022-08-03T15:28:40;35.50;1.00
2523;DHT22;1272;53.332;9.860;2022-08-03T15:31:06;35.50;1.00
2523;DHT22;1272;53.332;9.860;2022-08-03T15:33:32;35.20;1.00
2523;DHT22;1272;53.332;9.860;2022-08-03T15:35:57;35.20;1.00
2523;DHT22;1272;53.332;9.860;2022-08-03T15:38:24;35.30;1.00
2523;DHT22;1272;53.332;9.860;2022-08-03T15:40:50;35.20;1.00
2523;DHT22;1272;53.332;9.860;2022-08-03T15:43:19;35.20;1.00
2523;DHT22;1272;53.332;9.860;2022-08-03T15:45:45;35.60;1.00
2523;DHT22;1272;53.332;9.860;2022-08-03T15:48:11;35.80;1.00
2523;DHT22;1272;53.332;9.860;2022-08-03T15:50:36;36.10;1.00
2523;DHT22;1272;53.332;9.860;2022-08-03T15:53:03;35.80;99.90
2523;DHT22;1272;53.332;9.860;2022-08-03T15:55:28;35.20;99.90
2523;DHT22;1272;53.332;9.860;2022-08-03T15:57:55;34.60;99.90
2523;DHT22;1272;53.332;9.860;2022-08-03T16:00:21;34.40;99.90
2523;DHT22;1272;53.332;9.860;2022-08-03T16:02:47;34.30;99.90
2523;DHT22;1272;53.332;9.860;2022-08-03T16:05:12;34.30;99.90
2523;DHT22;1272;53.332;9.860;2022-08-03T16:07:38;34.50;99.90
2523;DHT22;1272;53.332;9.860;2022-08-03T16:10:17;34.70;99.90
2523;DHT22;1272;53.332;9.860;2022-08-03T16:12:43;34.70;99.90
2523;DHT22;1272;53.332;9.860;2022-08-03T16:15:10;34.20;99.90
2523;DHT22;1272;53.332;9.860;2022-08-03T16:17:37;33.70;99.90
2523;DHT22;1272;53.332;9.860;2022-08-03T16:20:08;33.40;99.90
2523;DHT22;1272;53.332;9.860;2022-08-03T16:22:43;33.30;99.90
2523;DHT22;1272;53.332;9.860;2022-08-03T16:25:10;33.40;99.90
2523;DHT22;1272;53.332;9.860;2022-08-03T16:27:35;33.60;99.90
2523;DHT22;1272;53.332;9.860;2022-08-03T16:30:02;33.70;99.90
2523;DHT22;1272;53.332;9.860;2022-08-03T16:32:28;33.90;99.90
2523;DHT22;1272;53.332;9.860;2022-08-03T16:34:54;33.80;99.90
2523;DHT22;1272;53.332;9.860;2022-08-03T16:37:19;33.60;99.90
2523;DHT22;1272;53.332;9.860;2022-08-03T16:39:45;33.40;99.90
2523;DHT22;1272;53.332;9.860;2022-08-03T16:42:10;33.40;99.90
2523;DHT22;1272;53.332;9.860;2022-08-03T16:44:36;33.10;99.90
2523;DHT22;1272;53.332;9.860;2022-08-03T16:47:02;33.00;99.90
2523;DHT22;1272;53.332;9.860;2022-08-03T16:49:28;33.00;99.90
2523;DHT22;1272;53.332;9.860;2022-08-03T16:51:53;33.10;99.90
2523;DHT22;1272;53.332;9.860;2022-08-03T16:54:19;33.00;99.90
2523;DHT22;1272;53.332;9.860;2022-08-03T16:56:46;33.00;99.90
2523;DHT22;1272;53.332;9.860;2022-08-03T16:59:11;32.90;99.90
2523;DHT22;1272;53.332;9.860;2022-08-03T17:01:39;32.60;99.90
2523;DHT22;1272;53.332;9.860;2022-08-03T17:04:05;32.50;99.90
2523;DHT22;1272;53.332;9.860;2022-08-03T17:06:36;32.50;99.90